createdAt,value
2017-12-29T00:00:08.717Z,996.55
2017-12-29T00:00:49.279Z,996.53
2017-12-29T00:01:29.844Z,996.57
2017-12-29T00:02:10.442Z,996.59
2017-12-29T00:02:51.027Z,996.62
2017-12-29T00:03:31.581Z,996.6
2017-12-29T00:04:12.129Z,996.62
2017-12-29T00:04:52.697Z,996.62
2017-12-29T00:05:33.261Z,996.6
2017-12-29T00:06:13.840Z,996.6
2017-12-29T00:06:54.405Z,996.57
2017-12-29T00:07:34.970Z,996.65
2017-12-29T00:08:15.550Z,996.64
2017-12-29T00:08:56.152Z,996.63
2017-12-29T00:09:36.706Z,996.66
2017-12-29T00:10:17.269Z,996.63
2017-12-29T00:10:57.832Z,996.65
2017-12-29T00:11:38.476Z,996.62
2017-12-29T00:12:19.062Z,996.71
2017-12-29T00:12:59.622Z,996.68
2017-12-29T00:13:40.182Z,996.73
2017-12-29T00:14:20.745Z,996.76
2017-12-29T00:15:01.309Z,996.75
2017-12-29T00:15:41.864Z,996.76
2017-12-29T00:16:22.429Z,996.75
2017-12-29T00:17:03.030Z,996.81
2017-12-29T00:17:43.602Z,996.82
2017-12-29T00:18:24.175Z,996.81
2017-12-29T00:19:04.732Z,996.82
2017-12-29T00:19:45.319Z,996.72
2017-12-29T00:20:25.891Z,996.8
2017-12-29T00:21:06.456Z,996.83
2017-12-29T00:21:47.018Z,996.84
2017-12-29T00:22:27.625Z,996.84
2017-12-29T00:23:08.177Z,996.85
2017-12-29T00:23:48.745Z,996.85
2017-12-29T00:24:29.306Z,996.83
2017-12-29T00:25:09.888Z,996.8
2017-12-29T00:25:52.116Z,996.83
2017-12-29T00:26:32.704Z,996.84
2017-12-29T00:27:13.270Z,996.83
2017-12-29T00:27:53.838Z,996.87
2017-12-29T00:28:34.418Z,996.88
2017-12-29T00:29:14.991Z,996.88
2017-12-29T00:29:55.598Z,996.84
2017-12-29T00:30:36.167Z,996.85
2017-12-29T00:31:16.727Z,996.89
2017-12-29T00:31:57.293Z,996.91
2017-12-29T00:32:37.907Z,996.92
2017-12-29T00:33:18.452Z,996.91
2017-12-29T00:33:59.015Z,996.87
2017-12-29T00:34:39.563Z,996.94
2017-12-29T00:35:20.119Z,996.9
2017-12-29T00:36:00.690Z,996.9
2017-12-29T00:36:41.277Z,996.88
2017-12-29T00:37:21.864Z,996.9
2017-12-29T00:38:02.429Z,996.89
2017-12-29T00:38:42.995Z,996.89
2017-12-29T00:39:23.549Z,996.89
2017-12-29T00:40:04.139Z,996.93
2017-12-29T00:40:44.701Z,996.92
2017-12-29T00:41:25.263Z,996.92
2017-12-29T00:42:05.822Z,996.91
2017-12-29T00:42:46.376Z,996.87
2017-12-29T00:43:26.933Z,996.92
2017-12-29T00:44:07.492Z,996.91
2017-12-29T00:44:48.050Z,996.94
2017-12-29T00:45:28.612Z,996.93
2017-12-29T00:46:09.166Z,996.96
2017-12-29T00:46:49.730Z,997.02
2017-12-29T00:47:30.288Z,996.96
2017-12-29T00:48:10.847Z,996.97
2017-12-29T00:48:51.420Z,996.99
2017-12-29T00:49:32.023Z,996.98
2017-12-29T00:50:12.598Z,996.99
2017-12-29T00:50:53.155Z,997
2017-12-29T00:51:33.714Z,997.01
2017-12-29T00:52:14.280Z,997.03
2017-12-29T00:52:54.856Z,997.03
2017-12-29T00:53:35.466Z,997.04
2017-12-29T00:54:16.028Z,997.01
2017-12-29T00:54:56.588Z,997.08
2017-12-29T00:55:37.159Z,997.06
2017-12-29T00:56:17.773Z,997.08
2017-12-29T00:56:58.334Z,997.05
2017-12-29T00:57:38.890Z,997.04
2017-12-29T00:58:19.478Z,997.03
2017-12-29T00:59:00.067Z,997.06
2017-12-29T00:59:40.646Z,997.05
2017-12-29T01:00:21.231Z,997.11
2017-12-29T01:01:01.822Z,997.1
2017-12-29T01:01:42.393Z,997.06
2017-12-29T01:02:22.978Z,997.09
2017-12-29T01:03:03.538Z,997.09
2017-12-29T01:03:44.098Z,997.11
2017-12-29T01:04:24.760Z,997.14
2017-12-29T01:05:05.319Z,997.11
2017-12-29T01:05:45.896Z,997.13
2017-12-29T01:06:26.451Z,997.12
2017-12-29T01:07:07.019Z,997.16
2017-12-29T01:07:47.577Z,997.05
2017-12-29T01:08:28.162Z,997.11
2017-12-29T01:09:08.739Z,997.11
2017-12-29T01:09:49.323Z,997.05
2017-12-29T01:10:29.915Z,997.1
2017-12-29T01:11:10.499Z,997.12
2017-12-29T01:11:51.055Z,997.12
2017-12-29T01:12:31.636Z,997.18
2017-12-29T01:13:12.208Z,997.18
2017-12-29T01:13:52.808Z,997.21
2017-12-29T01:14:33.401Z,997.23
2017-12-29T01:15:14.008Z,997.22
2017-12-29T01:15:54.567Z,997.22
2017-12-29T01:16:35.146Z,997.24
2017-12-29T01:17:15.717Z,997.22
2017-12-29T01:17:56.285Z,997.26
2017-12-29T01:18:36.857Z,997.27
2017-12-29T01:19:17.430Z,997.25
2017-12-29T01:19:57.999Z,997.32
2017-12-29T01:20:38.577Z,997.27
2017-12-29T01:21:19.147Z,997.27
2017-12-29T01:21:59.704Z,997.25
2017-12-29T01:22:40.258Z,997.24
2017-12-29T01:23:20.818Z,997.29
2017-12-29T01:24:01.377Z,997.19
2017-12-29T01:24:41.944Z,997.23
2017-12-29T01:25:22.507Z,997.25
2017-12-29T01:26:03.075Z,997.19
2017-12-29T01:26:43.637Z,997.24
2017-12-29T01:27:24.198Z,997.24
2017-12-29T01:28:04.762Z,997.23
2017-12-29T01:28:45.320Z,997.24
2017-12-29T01:29:25.902Z,997.23
2017-12-29T01:30:06.475Z,997.25
2017-12-29T01:30:47.035Z,997.24
2017-12-29T01:31:27.599Z,997.26
2017-12-29T01:32:08.171Z,997.27
2017-12-29T01:32:48.741Z,997.26
2017-12-29T01:33:29.323Z,997.22
2017-12-29T01:34:09.889Z,997.27
2017-12-29T01:34:50.491Z,997.27
2017-12-29T01:35:31.054Z,997.32
2017-12-29T01:36:11.620Z,997.25
2017-12-29T01:36:52.183Z,997.26
2017-12-29T01:37:32.746Z,997.23
2017-12-29T01:38:13.313Z,997.21
2017-12-29T01:38:53.885Z,997.28
2017-12-29T01:39:34.451Z,997.25
2017-12-29T01:40:15.124Z,997.26
2017-12-29T01:40:55.692Z,997.27
2017-12-29T01:41:36.238Z,997.24
2017-12-29T01:42:16.814Z,997.28
2017-12-29T01:42:57.389Z,997.31
2017-12-29T01:43:37.948Z,997.34
2017-12-29T01:44:18.504Z,997.3
2017-12-29T01:44:59.060Z,997.32
2017-12-29T01:45:39.611Z,997.35
2017-12-29T01:46:20.163Z,997.39
2017-12-29T01:47:00.724Z,997.37
2017-12-29T01:47:41.291Z,997.33
2017-12-29T01:48:25.150Z,997.36
2017-12-29T01:49:05.720Z,997.4
2017-12-29T01:49:46.276Z,997.44
2017-12-29T01:50:26.829Z,997.42
2017-12-29T01:51:07.386Z,997.47
2017-12-29T01:51:47.938Z,997.51
2017-12-29T01:52:28.516Z,997.46
2017-12-29T01:53:09.073Z,997.46
2017-12-29T01:53:49.659Z,997.46
2017-12-29T01:54:30.208Z,997.48
2017-12-29T01:55:10.814Z,997.46
2017-12-29T01:55:51.413Z,997.53
2017-12-29T01:56:31.987Z,997.47
2017-12-29T01:57:12.545Z,997.51
2017-12-29T01:57:53.097Z,997.53
2017-12-29T01:58:33.661Z,997.55
2017-12-29T01:59:14.234Z,997.6
2017-12-29T01:59:54.814Z,997.57
2017-12-29T02:00:35.385Z,997.55
2017-12-29T02:01:15.946Z,997.57
2017-12-29T02:01:56.504Z,997.56
2017-12-29T02:02:37.058Z,997.6
2017-12-29T02:03:17.642Z,997.6
2017-12-29T02:03:58.196Z,997.66
2017-12-29T02:04:38.778Z,997.67
2017-12-29T02:05:19.361Z,997.71
2017-12-29T02:05:59.914Z,997.62
2017-12-29T02:06:40.488Z,997.68
2017-12-29T02:07:21.054Z,997.75
2017-12-29T02:08:01.637Z,997.74
2017-12-29T02:08:42.206Z,997.77
2017-12-29T02:09:22.770Z,997.78
2017-12-29T02:10:03.323Z,997.71
2017-12-29T02:10:43.891Z,997.75
2017-12-29T02:11:24.453Z,997.72
2017-12-29T02:12:05.010Z,997.73
2017-12-29T02:12:45.599Z,997.75
2017-12-29T02:13:26.166Z,997.75
2017-12-29T02:14:06.730Z,997.74
2017-12-29T02:14:47.347Z,997.73
2017-12-29T02:15:27.937Z,997.78
2017-12-29T02:16:08.532Z,997.8
2017-12-29T02:16:49.089Z,997.77
2017-12-29T02:17:29.644Z,997.8
2017-12-29T02:18:10.219Z,997.84
2017-12-29T02:18:50.783Z,997.84
2017-12-29T02:19:31.339Z,997.81
2017-12-29T02:20:11.934Z,997.85
2017-12-29T02:20:52.531Z,997.85
2017-12-29T02:21:33.102Z,997.87
2017-12-29T02:22:13.692Z,997.81
2017-12-29T02:22:54.297Z,997.85
2017-12-29T02:23:34.854Z,997.82
2017-12-29T02:24:15.415Z,997.83
2017-12-29T02:24:55.980Z,997.83
2017-12-29T02:25:36.543Z,997.85
2017-12-29T02:26:17.176Z,997.9
2017-12-29T02:26:57.778Z,997.9
2017-12-29T02:27:38.370Z,997.9
2017-12-29T02:28:18.921Z,997.89
2017-12-29T02:28:59.533Z,997.97
2017-12-29T02:29:40.098Z,997.95
2017-12-29T02:30:20.689Z,997.98
2017-12-29T02:31:01.246Z,997.98
2017-12-29T02:31:41.810Z,997.99
2017-12-29T02:32:22.380Z,997.95
2017-12-29T02:33:02.972Z,997.98
2017-12-29T02:33:43.549Z,997.96
2017-12-29T02:34:24.117Z,998.01
2017-12-29T02:35:04.685Z,997.98
2017-12-29T02:35:45.239Z,998.02
2017-12-29T02:36:25.804Z,998.05
2017-12-29T02:37:06.377Z,998.02
2017-12-29T02:37:46.934Z,998.03
2017-12-29T02:38:27.486Z,998.03
2017-12-29T02:39:08.052Z,998.04
2017-12-29T02:39:48.650Z,998.04
2017-12-29T02:40:29.202Z,998.11
2017-12-29T02:41:09.761Z,998.09
2017-12-29T02:41:50.338Z,998.13
2017-12-29T02:42:30.904Z,998.11
2017-12-29T02:43:11.506Z,998.11
2017-12-29T02:43:52.064Z,998.13
2017-12-29T02:44:32.638Z,998.13
2017-12-29T02:45:13.193Z,998.13
2017-12-29T02:45:53.748Z,998.1
2017-12-29T02:46:34.330Z,998.17
2017-12-29T02:47:14.900Z,998.19
2017-12-29T02:47:55.454Z,998.18
2017-12-29T02:48:36.035Z,998.17
2017-12-29T02:49:16.615Z,998.17
2017-12-29T02:49:57.167Z,998.18
2017-12-29T02:50:37.725Z,998.17
2017-12-29T02:51:18.289Z,998.24
2017-12-29T02:51:58.840Z,998.21
2017-12-29T02:52:39.442Z,998.23
2017-12-29T02:53:19.978Z,998.23
2017-12-29T02:54:00.547Z,998.19
2017-12-29T02:54:41.107Z,998.23
2017-12-29T02:55:21.666Z,998.25
2017-12-29T02:56:02.228Z,998.3
2017-12-29T02:56:42.872Z,998.31
2017-12-29T02:57:23.438Z,998.29
2017-12-29T02:58:04.023Z,998.33
2017-12-29T02:58:44.642Z,998.3
2017-12-29T02:59:25.259Z,998.34
2017-12-29T03:00:05.842Z,998.33
2017-12-29T03:00:46.410Z,998.35
2017-12-29T03:01:26.999Z,998.36
2017-12-29T03:02:07.554Z,998.31
2017-12-29T03:02:48.116Z,998.33
2017-12-29T03:03:28.673Z,998.33
2017-12-29T03:04:09.226Z,998.34
2017-12-29T03:04:49.790Z,998.3
2017-12-29T03:05:30.353Z,998.25
2017-12-29T03:06:10.916Z,998.32
2017-12-29T03:06:51.487Z,998.31
2017-12-29T03:07:32.047Z,998.26
2017-12-29T03:08:12.624Z,998.32
2017-12-29T03:08:53.177Z,998.31
2017-12-29T03:09:33.742Z,998.32
2017-12-29T03:10:14.314Z,998.32
2017-12-29T03:10:54.879Z,998.33
2017-12-29T03:11:35.440Z,998.33
2017-12-29T03:12:16.002Z,998.34
2017-12-29T03:12:56.592Z,998.36
2017-12-29T03:13:37.185Z,998.34
2017-12-29T03:14:17.773Z,998.38
2017-12-29T03:14:58.328Z,998.34
2017-12-29T03:15:38.886Z,998.39
2017-12-29T03:16:19.447Z,998.37
2017-12-29T03:17:00.017Z,998.41
2017-12-29T03:17:40.588Z,998.4
2017-12-29T03:18:21.172Z,998.4
2017-12-29T03:19:01.733Z,998.43
2017-12-29T03:19:42.320Z,998.38
2017-12-29T03:20:22.876Z,998.38
2017-12-29T03:21:03.448Z,998.4
2017-12-29T03:21:44.012Z,998.36
2017-12-29T03:22:24.574Z,998.42
2017-12-29T03:23:05.146Z,998.37
2017-12-29T03:23:45.699Z,998.41
2017-12-29T03:24:26.277Z,998.4
2017-12-29T03:25:06.840Z,998.47
2017-12-29T03:25:47.398Z,998.45
2017-12-29T03:26:27.971Z,998.43
2017-12-29T03:27:08.537Z,998.43
2017-12-29T03:27:49.130Z,998.46
2017-12-29T03:28:29.692Z,998.48
2017-12-29T03:29:10.252Z,998.53
2017-12-29T03:29:50.816Z,998.57
2017-12-29T03:30:31.374Z,998.55
2017-12-29T03:31:11.941Z,998.53
2017-12-29T03:31:52.494Z,998.52
2017-12-29T03:32:33.049Z,998.56
2017-12-29T03:33:13.611Z,998.57
2017-12-29T03:33:54.171Z,998.56
2017-12-29T03:34:34.729Z,998.64
2017-12-29T03:35:15.316Z,998.62
2017-12-29T03:35:55.876Z,998.57
2017-12-29T03:36:36.440Z,998.66
2017-12-29T03:37:17.016Z,998.63
2017-12-29T03:37:57.605Z,998.58
2017-12-29T03:38:38.158Z,998.64
2017-12-29T03:39:18.717Z,998.62
2017-12-29T03:39:59.270Z,998.63
2017-12-29T03:40:39.859Z,998.65
2017-12-29T03:41:20.425Z,998.65
2017-12-29T03:42:00.988Z,998.59
2017-12-29T03:42:41.543Z,998.6
2017-12-29T03:43:22.097Z,998.63
2017-12-29T03:44:02.653Z,998.64
2017-12-29T03:44:43.212Z,998.68
2017-12-29T03:45:23.793Z,998.68
2017-12-29T03:46:04.403Z,998.67
2017-12-29T03:46:44.983Z,998.67
2017-12-29T03:47:25.546Z,998.67
2017-12-29T03:48:06.104Z,998.69
2017-12-29T03:48:46.678Z,998.65
2017-12-29T03:49:27.248Z,998.68
2017-12-29T03:50:07.808Z,998.67
2017-12-29T03:50:48.370Z,998.69
2017-12-29T03:51:28.949Z,998.67
2017-12-29T03:52:09.531Z,998.61
2017-12-29T03:52:50.088Z,998.7
2017-12-29T03:53:30.650Z,998.68
2017-12-29T03:54:11.211Z,998.65
2017-12-29T03:54:51.798Z,998.65
2017-12-29T03:55:32.387Z,998.64
2017-12-29T03:56:12.959Z,998.67
2017-12-29T03:56:53.551Z,998.64
2017-12-29T03:57:34.112Z,998.67
2017-12-29T03:58:14.675Z,998.64
2017-12-29T03:58:55.271Z,998.66
2017-12-29T03:59:35.847Z,998.68
2017-12-29T04:00:16.434Z,998.68
2017-12-29T04:00:57.743Z,998.68
2017-12-29T04:01:38.338Z,998.65
2017-12-29T04:02:18.899Z,998.67
2017-12-29T04:02:59.459Z,998.63
2017-12-29T04:03:40.035Z,998.67
2017-12-29T04:04:20.601Z,998.66
2017-12-29T04:05:01.211Z,998.67
2017-12-29T04:05:41.791Z,998.64
2017-12-29T04:06:22.353Z,998.67
2017-12-29T04:07:02.931Z,998.71
2017-12-29T04:07:43.498Z,998.69
2017-12-29T04:08:24.086Z,998.74
2017-12-29T04:09:04.642Z,998.73
2017-12-29T04:09:45.206Z,998.75
2017-12-29T04:10:25.781Z,998.73
2017-12-29T04:11:06.346Z,998.77
2017-12-29T04:11:46.900Z,998.78
2017-12-29T04:12:27.456Z,998.74
2017-12-29T04:13:08.009Z,998.71
2017-12-29T04:13:48.576Z,998.78
2017-12-29T04:14:29.133Z,998.8
2017-12-29T04:15:09.681Z,998.76
2017-12-29T04:15:50.247Z,998.78
2017-12-29T04:16:30.830Z,998.84
2017-12-29T04:17:11.406Z,998.86
2017-12-29T04:17:52.008Z,998.89
2017-12-29T04:18:32.562Z,998.81
2017-12-29T04:19:13.121Z,998.82
2017-12-29T04:19:53.674Z,998.87
2017-12-29T04:20:34.266Z,998.85
2017-12-29T04:21:14.824Z,998.85
2017-12-29T04:21:55.380Z,998.84
2017-12-29T04:22:35.940Z,998.86
2017-12-29T04:23:16.508Z,998.88
2017-12-29T04:23:57.071Z,998.83
2017-12-29T04:24:37.628Z,998.85
2017-12-29T04:25:18.219Z,998.89
2017-12-29T04:25:58.770Z,998.87
2017-12-29T04:26:39.327Z,998.91
2017-12-29T04:27:19.878Z,998.9
2017-12-29T04:28:00.433Z,998.91
2017-12-29T04:28:40.992Z,998.91
2017-12-29T04:29:21.565Z,998.91
2017-12-29T04:30:02.131Z,998.9
2017-12-29T04:30:42.729Z,998.95
2017-12-29T04:31:23.314Z,998.89
2017-12-29T04:32:03.889Z,998.89
2017-12-29T04:32:44.452Z,998.87
2017-12-29T04:33:25.025Z,998.92
2017-12-29T04:34:05.591Z,998.86
2017-12-29T04:34:46.155Z,998.87
2017-12-29T04:35:26.734Z,998.92
2017-12-29T04:36:07.300Z,998.91
2017-12-29T04:36:47.863Z,998.94
2017-12-29T04:37:28.430Z,999
2017-12-29T04:38:08.995Z,998.95
2017-12-29T04:38:49.556Z,999
2017-12-29T04:39:30.139Z,999.02
2017-12-29T04:40:10.728Z,999
2017-12-29T04:40:51.267Z,998.97
2017-12-29T04:41:31.848Z,999.02
2017-12-29T04:42:12.405Z,999
2017-12-29T04:42:53.018Z,999.03
2017-12-29T04:43:33.577Z,998.99
2017-12-29T04:44:14.161Z,999.05
2017-12-29T04:44:54.758Z,999.03
2017-12-29T04:45:35.329Z,999.04
2017-12-29T04:46:15.895Z,999.05
2017-12-29T04:46:56.455Z,999.07
2017-12-29T04:47:37.017Z,999.04
2017-12-29T04:48:17.599Z,999.05
2017-12-29T04:48:58.170Z,999.06
2017-12-29T04:49:38.741Z,999.03
2017-12-29T04:50:19.294Z,999.08
2017-12-29T04:51:00.701Z,999.07
2017-12-29T04:51:41.255Z,999
2017-12-29T04:52:21.856Z,999.06
2017-12-29T04:53:02.413Z,999.1
2017-12-29T04:53:42.980Z,999.05
2017-12-29T04:54:23.541Z,999.16
2017-12-29T04:55:04.104Z,999.12
2017-12-29T04:55:44.680Z,999.12
2017-12-29T04:56:25.249Z,999.15
2017-12-29T04:57:05.820Z,999.12
2017-12-29T04:57:46.396Z,999.12
2017-12-29T04:58:26.956Z,999.16
2017-12-29T04:59:07.514Z,999.16
2017-12-29T04:59:48.101Z,999.17
2017-12-29T05:00:28.650Z,999.21
2017-12-29T05:01:09.212Z,999.17
2017-12-29T05:01:49.782Z,999.28
2017-12-29T05:02:30.349Z,999.22
2017-12-29T05:03:10.916Z,999.21
2017-12-29T05:03:51.524Z,999.23
2017-12-29T05:04:32.100Z,999.25
2017-12-29T05:05:12.656Z,999.26
2017-12-29T05:05:53.238Z,999.28
2017-12-29T05:06:33.809Z,999.29
2017-12-29T05:07:14.372Z,999.28
2017-12-29T05:07:54.950Z,999.28
2017-12-29T05:08:35.505Z,999.28
2017-12-29T05:09:16.062Z,999.28
2017-12-29T05:09:56.616Z,999.33
2017-12-29T05:10:37.187Z,999.31
2017-12-29T05:11:17.742Z,999.36
2017-12-29T05:11:58.316Z,999.31
2017-12-29T05:12:38.874Z,999.33
2017-12-29T05:13:19.448Z,999.38
2017-12-29T05:14:00.026Z,999.38
2017-12-29T05:14:40.577Z,999.38
2017-12-29T05:15:21.172Z,999.32
2017-12-29T05:16:01.765Z,999.32
2017-12-29T05:16:42.346Z,999.37
2017-12-29T05:17:22.915Z,999.32
2017-12-29T05:18:03.477Z,999.29
2017-12-29T05:18:44.044Z,999.32
2017-12-29T05:19:24.627Z,999.31
2017-12-29T05:20:05.191Z,999.29
2017-12-29T05:20:45.754Z,999.34
2017-12-29T05:21:26.322Z,999.3
2017-12-29T05:22:06.880Z,999.29
2017-12-29T05:22:47.432Z,999.29
2017-12-29T05:23:27.985Z,999.36
2017-12-29T05:24:08.549Z,999.34
2017-12-29T05:24:49.114Z,999.38
2017-12-29T05:25:29.720Z,999.35
2017-12-29T05:26:10.312Z,999.37
2017-12-29T05:26:50.885Z,999.32
2017-12-29T05:27:31.447Z,999.38
2017-12-29T05:28:12.008Z,999.37
2017-12-29T05:28:52.591Z,999.4
2017-12-29T05:29:33.166Z,999.45
2017-12-29T05:30:13.726Z,999.41
2017-12-29T05:30:54.288Z,999.35
2017-12-29T05:31:34.858Z,999.37
2017-12-29T05:32:15.421Z,999.36
2017-12-29T05:32:55.987Z,999.36
2017-12-29T05:33:36.540Z,999.32
2017-12-29T05:34:17.108Z,999.34
2017-12-29T05:34:57.666Z,999.37
2017-12-29T05:35:40.994Z,999.39
2017-12-29T05:36:21.562Z,999.35
2017-12-29T05:37:02.130Z,999.34
2017-12-29T05:37:42.694Z,999.32
2017-12-29T05:38:23.276Z,999.33
2017-12-29T05:39:03.839Z,999.33
2017-12-29T05:39:44.397Z,999.32
2017-12-29T05:40:24.992Z,999.33
2017-12-29T05:41:05.598Z,999.33
2017-12-29T05:41:46.156Z,999.32
2017-12-29T05:42:26.713Z,999.36
2017-12-29T05:43:07.261Z,999.28
2017-12-29T05:43:47.842Z,999.32
2017-12-29T05:44:28.433Z,999.33
2017-12-29T05:45:08.985Z,999.36
2017-12-29T05:45:49.555Z,999.32
2017-12-29T05:46:30.112Z,999.38
2017-12-29T05:47:10.670Z,999.36
2017-12-29T05:47:51.236Z,999.37
2017-12-29T05:48:31.807Z,999.34
2017-12-29T05:49:12.405Z,999.4
2017-12-29T05:49:52.903Z,999.36
2017-12-29T05:50:33.467Z,999.41
2017-12-29T05:51:14.020Z,999.44
2017-12-29T05:51:54.575Z,999.38
2017-12-29T05:52:35.145Z,999.4
2017-12-29T05:53:15.730Z,999.42
2017-12-29T05:53:56.287Z,999.41
2017-12-29T05:54:36.845Z,999.44
2017-12-29T05:55:17.407Z,999.43
2017-12-29T05:55:58.008Z,999.4
2017-12-29T05:56:38.563Z,999.46
2017-12-29T05:57:19.121Z,999.44
2017-12-29T05:57:59.678Z,999.48
2017-12-29T05:58:40.278Z,999.45
2017-12-29T05:59:20.852Z,999.45
2017-12-29T06:00:01.448Z,999.43
2017-12-29T06:00:42.046Z,999.36
2017-12-29T06:01:22.611Z,999.45
2017-12-29T06:02:03.171Z,999.41
2017-12-29T06:02:43.748Z,999.37
2017-12-29T06:03:24.308Z,999.4
2017-12-29T06:04:04.871Z,999.38
2017-12-29T06:04:45.444Z,999.39
2017-12-29T06:05:26.014Z,999.4
2017-12-29T06:06:06.605Z,999.38
2017-12-29T06:06:47.161Z,999.39
2017-12-29T06:07:27.735Z,999.37
2017-12-29T06:08:08.298Z,999.41
2017-12-29T06:08:48.857Z,999.37
2017-12-29T06:09:29.408Z,999.37
2017-12-29T06:10:09.966Z,999.38
2017-12-29T06:10:50.527Z,999.41
2017-12-29T06:11:31.108Z,999.42
2017-12-29T06:12:11.679Z,999.42
2017-12-29T06:12:52.229Z,999.44
2017-12-29T06:13:32.808Z,999.38
2017-12-29T06:14:13.381Z,999.43
2017-12-29T06:14:53.963Z,999.47
2017-12-29T06:15:34.545Z,999.38
2017-12-29T06:16:15.124Z,999.41
2017-12-29T06:16:55.684Z,999.47
2017-12-29T06:17:36.244Z,999.46
2017-12-29T06:18:16.812Z,999.45
2017-12-29T06:18:57.385Z,999.48
2017-12-29T06:19:37.944Z,999.49
2017-12-29T06:20:18.503Z,999.45
2017-12-29T06:20:59.092Z,999.47
2017-12-29T06:21:39.664Z,999.51
2017-12-29T06:22:20.227Z,999.48
2017-12-29T06:23:00.841Z,999.43
2017-12-29T06:23:41.407Z,999.41
2017-12-29T06:24:21.985Z,999.42
2017-12-29T06:25:02.543Z,999.41
2017-12-29T06:25:43.107Z,999.4
2017-12-29T06:26:23.676Z,999.36
2017-12-29T06:27:04.258Z,999.44
2017-12-29T06:27:44.816Z,999.4
2017-12-29T06:28:25.390Z,999.41
2017-12-29T06:29:05.967Z,999.42
2017-12-29T06:29:46.524Z,999.39
2017-12-29T06:30:27.081Z,999.5
2017-12-29T06:31:07.646Z,999.48
2017-12-29T06:31:48.239Z,999.46
2017-12-29T06:32:28.800Z,999.47
2017-12-29T06:33:09.360Z,999.49
2017-12-29T06:33:49.922Z,999.57
2017-12-29T06:34:30.472Z,999.53
2017-12-29T06:35:11.034Z,999.55
2017-12-29T06:35:51.602Z,999.54
2017-12-29T06:36:32.172Z,999.51
2017-12-29T06:37:12.728Z,999.55
2017-12-29T06:37:53.284Z,999.55
2017-12-29T06:38:33.845Z,999.56
2017-12-29T06:39:14.426Z,999.59
2017-12-29T06:39:55.001Z,999.6
2017-12-29T06:40:35.562Z,999.6
2017-12-29T06:41:16.121Z,999.63
2017-12-29T06:41:56.687Z,999.63
2017-12-29T06:42:37.248Z,999.64
2017-12-29T06:43:17.821Z,999.6
2017-12-29T06:43:58.370Z,999.65
2017-12-29T06:44:38.964Z,999.62
2017-12-29T06:45:19.530Z,999.58
2017-12-29T06:46:00.096Z,999.62
2017-12-29T06:46:40.663Z,999.63
2017-12-29T06:47:21.218Z,999.61
2017-12-29T06:48:01.781Z,999.61
2017-12-29T06:48:42.339Z,999.62
2017-12-29T06:49:22.897Z,999.66
2017-12-29T06:50:03.477Z,999.69
2017-12-29T06:50:44.040Z,999.73
2017-12-29T06:51:24.611Z,999.71
2017-12-29T06:52:05.178Z,999.72
2017-12-29T06:52:45.735Z,999.7
2017-12-29T06:53:26.307Z,999.71
2017-12-29T06:54:06.871Z,999.75
2017-12-29T06:54:47.465Z,999.68
2017-12-29T06:55:27.988Z,999.72
2017-12-29T06:56:08.549Z,999.72
2017-12-29T06:56:49.123Z,999.72
2017-12-29T06:57:29.674Z,999.74
2017-12-29T06:58:10.232Z,999.76
2017-12-29T06:58:50.784Z,999.77
2017-12-29T06:59:31.485Z,999.79
2017-12-29T07:00:12.296Z,999.78
2017-12-29T07:00:55.769Z,999.8
2017-12-29T07:01:43.408Z,999.8
2017-12-29T07:02:24.155Z,999.82
2017-12-29T07:03:04.737Z,999.82
2017-12-29T07:03:45.334Z,999.84
2017-12-29T07:04:25.853Z,999.85
2017-12-29T07:05:06.417Z,999.85
2017-12-29T07:05:47.086Z,999.84
2017-12-29T07:06:27.881Z,999.89
2017-12-29T07:07:08.683Z,999.87
2017-12-29T07:07:49.393Z,999.92
2017-12-29T07:08:30.210Z,999.9
2017-12-29T07:09:10.788Z,999.95
2017-12-29T07:09:51.349Z,999.95
2017-12-29T07:10:31.912Z,999.92
2017-12-29T07:11:12.492Z,999.99
2017-12-29T07:11:53.068Z,1000
2017-12-29T07:12:33.808Z,999.98
2017-12-29T07:13:14.864Z,1000
2017-12-29T07:13:55.427Z,1000.03
2017-12-29T07:14:35.999Z,1000.04
2017-12-29T07:15:16.689Z,1000.05
2017-12-29T07:15:57.545Z,1000.03
2017-12-29T07:16:38.162Z,1000.03
2017-12-29T07:17:18.852Z,1000.02
2017-12-29T07:17:59.734Z,1000.05
2017-12-29T07:18:40.629Z,1000.08
2017-12-29T07:19:21.454Z,1000.05
2017-12-29T07:20:02.272Z,1000.12
2017-12-29T07:20:43.326Z,1000.1
2017-12-29T07:21:23.892Z,1000.07
2017-12-29T07:22:04.457Z,1000.08
2017-12-29T07:22:45.335Z,1000.05
2017-12-29T07:23:25.898Z,1000.06
2017-12-29T07:24:07.056Z,1000.09
2017-12-29T07:24:48.236Z,1000.13
2017-12-29T07:25:28.815Z,1000.12
2017-12-29T07:26:09.573Z,1000.12
2017-12-29T07:26:50.813Z,1000.14
2017-12-29T07:27:31.669Z,1000.05
2017-12-29T07:28:12.326Z,1000.12
2017-12-29T07:28:52.897Z,1000.08
2017-12-29T07:29:33.731Z,1000.03
2017-12-29T07:30:14.463Z,1000.16
2017-12-29T07:30:55.052Z,1000.08
2017-12-29T07:31:36.025Z,1000.09
2017-12-29T07:32:17.107Z,1000.08
2017-12-29T07:32:57.860Z,1000.13
2017-12-29T07:33:38.419Z,1000.15
2017-12-29T07:34:19.089Z,1000.14
2017-12-29T07:34:59.650Z,1000.13
2017-12-29T07:35:40.473Z,1000.18
2017-12-29T07:36:21.236Z,1000.13
2017-12-29T07:37:02.170Z,1000.13
2017-12-29T07:37:42.788Z,1000.15
2017-12-29T07:38:23.817Z,1000.15
2017-12-29T07:39:04.887Z,1000.19
2017-12-29T07:39:45.855Z,1000.21
2017-12-29T07:40:27.539Z,1000.21
2017-12-29T07:41:08.307Z,1000.2
2017-12-29T07:41:49.240Z,1000.23
2017-12-29T07:42:29.804Z,1000.22
2017-12-29T07:43:10.369Z,1000.25
2017-12-29T07:43:51.338Z,1000.22
2017-12-29T07:44:31.993Z,1000.22
2017-12-29T07:45:13.267Z,1000.23
2017-12-29T07:45:54.118Z,1000.23
2017-12-29T07:46:34.914Z,1000.23
2017-12-29T07:47:16.022Z,1000.26
2017-12-29T07:47:56.871Z,1000.27
2017-12-29T07:48:37.487Z,1000.28
2017-12-29T07:49:18.160Z,1000.27
2017-12-29T07:49:58.768Z,1000.32
2017-12-29T07:50:39.489Z,1000.3
2017-12-29T07:51:20.192Z,1000.28
2017-12-29T07:52:00.762Z,1000.31
2017-12-29T07:52:41.560Z,1000.29
2017-12-29T07:53:22.201Z,1000.28
2017-12-29T07:54:02.911Z,1000.29
2017-12-29T07:54:43.749Z,1000.39
2017-12-29T07:55:24.524Z,1000.37
2017-12-29T07:56:05.231Z,1000.38
2017-12-29T07:56:46.057Z,1000.36
2017-12-29T07:57:26.813Z,1000.42
2017-12-29T07:58:07.568Z,1000.38
2017-12-29T07:58:48.247Z,1000.38
2017-12-29T07:59:28.836Z,1000.37
2017-12-29T08:00:09.526Z,1000.37
2017-12-29T08:00:50.099Z,1000.4
2017-12-29T08:01:30.679Z,1000.42
2017-12-29T08:02:11.251Z,1000.45
2017-12-29T08:02:52.706Z,1000.41
2017-12-29T08:03:35.630Z,1000.46
2017-12-29T08:04:16.634Z,1000.46
2017-12-29T08:04:57.763Z,1000.42
2017-12-29T08:05:38.427Z,1000.4
2017-12-29T08:06:19.153Z,1000.44
2017-12-29T08:06:59.725Z,1000.49
2017-12-29T08:07:40.394Z,1000.48
2017-12-29T08:08:21.007Z,1000.5
2017-12-29T08:09:01.604Z,1000.48
2017-12-29T08:09:42.196Z,1000.52
2017-12-29T08:10:22.755Z,1000.56
2017-12-29T08:11:03.354Z,1000.56
2017-12-29T08:11:43.920Z,1000.53
2017-12-29T08:12:24.535Z,1000.55
2017-12-29T08:13:05.210Z,1000.61
2017-12-29T08:13:45.740Z,1000.61
2017-12-29T08:14:26.421Z,1000.53
2017-12-29T08:15:06.993Z,1000.63
2017-12-29T08:15:47.606Z,1000.61
2017-12-29T08:16:28.174Z,1000.61
2017-12-29T08:17:08.745Z,1000.64
2017-12-29T08:17:49.311Z,1000.62
2017-12-29T08:18:29.876Z,1000.65
2017-12-29T08:19:10.441Z,1000.67
2017-12-29T08:19:50.992Z,1000.68
2017-12-29T08:20:31.578Z,1000.69
2017-12-29T08:21:12.151Z,1000.69
2017-12-29T08:21:52.712Z,1000.73
2017-12-29T08:22:33.281Z,1000.72
2017-12-29T08:23:13.851Z,1000.76
2017-12-29T08:23:54.433Z,1000.73
2017-12-29T08:24:35.217Z,1000.82
2017-12-29T08:25:15.989Z,1000.84
2017-12-29T08:25:56.699Z,1000.79